Time;durP1;ratioP1;P1;durP2;ratioP2;P2;SDS_P1;SDS_P2;PMS_P1;PMS_P2;Temp;Humidity;BMP_temperature;BMP_pressure;BME280_temperature;BME280_humidity;BME280_pressure;Samples;Min_cycle;Max_cycle;Signal;HPM_P1;HPM_P2
2021/01/10 00:00:17;;;;;;;14.45;7.25;;;3.20;67.60;;;;;;4899736;29;20413;-72
2021/01/10 00:02:44;;;;;;;16.67;7.72;;;3.30;67.80;;;;;;4899814;29;20078;-72
2021/01/10 00:05:16;;;;;;;14.32;7.53;;;3.00;67.60;;;;;;4898909;29;20036;-72
2021/01/10 00:07:42;;;;;;;14.82;7.57;;;3.50;68.00;;;;;;4899283;29;20478;-72
2021/01/10 00:10:09;;;;;;;15.43;7.47;;;3.50;68.00;;;;;;4898976;29;20135;-72
2021/01/10 00:12:36;;;;;;;15.23;7.82;;;3.10;68.20;;;;;;4899426;29;20074;-72
2021/01/10 00:15:07;;;;;;;15.07;7.50;;;3.30;67.90;;;;;;4899370;29;20108;-72
2021/01/10 00:17:33;;;;;;;13.38;6.88;;;3.50;67.80;;;;;;4899371;29;20124;-72
2021/01/10 00:19:58;;;;;;;14.20;7.30;;;3.10;67.60;;;;;;4899366;29;20055;-71
2021/01/10 00:22:24;;;;;;;15.57;6.97;;;3.50;67.90;;;;;;4898867;29;20040;-72
2021/01/10 00:24:50;;;;;;;14.30;7.40;;;3.60;68.10;;;;;;4899002;29;20543;-72
2021/01/10 00:27:18;;;;;;;13.82;7.40;;;3.40;67.90;;;;;;4899014;29;20041;-72
2021/01/10 00:29:51;;;;;;;14.38;7.07;;;3.30;67.80;;;;;;4898882;29;20492;-72
2021/01/10 00:32:17;;;;;;;15.45;7.15;;;3.20;67.80;;;;;;4898957;29;20048;-72
2021/01/10 00:34:43;;;;;;;13.48;6.90;;;3.30;67.80;;;;;;4899287;29;20041;-72
2021/01/10 00:37:14;;;;;;;16.08;7.13;;;3.40;67.90;;;;;;4899296;29;20047;-72
2021/01/10 00:39:41;;;;;;;13.77;7.10;;;3.30;67.90;;;;;;4899004;29;20047;-72
2021/01/10 00:42:12;;;;;;;14.30;7.93;;;3.30;67.90;;;;;;4898959;29;20040;-72
2021/01/10 00:44:39;;;;;;;13.27;7.40;;;3.40;68.00;;;;;;4898932;29;20053;-72
2021/01/10 00:47:05;;;;;;;15.63;7.05;;;3.20;67.80;;;;;;4898892;29;20048;-72
2021/01/10 00:49:31;;;;;;;13.57;7.35;;;3.30;67.80;;;;;;4898837;29;20496;-72
2021/01/10 00:51:58;;;;;;;15.90;7.15;;;3.20;67.80;;;;;;4898820;29;20040;-72
2021/01/10 00:54:23;;;;;;;15.10;7.25;;;3.00;67.70;;;;;;4899001;29;20044;-72
2021/01/10 00:56:49;;;;;;;14.80;7.03;;;3.20;67.90;;;;;;4898605;29;20056;-72
2021/01/10 00:59:15;;;;;;;13.18;6.72;;;3.00;67.80;;;;;;4898670;29;20044;-72
2021/01/10 01:01:41;;;;;;;13.82;6.93;;;3.00;67.90;;;;;;4899106;29;20531;-72
2021/01/10 01:04:07;;;;;;;12.02;6.20;;;3.00;68.00;;;;;;4898818;29;20040;-72
2021/01/10 01:06:34;;;;;;;14.57;7.13;;;3.60;68.30;;;;;;4898851;29;20075;-72
2021/01/10 01:09:00;;;;;;;14.80;7.10;;;3.20;68.10;;;;;;4898958;29;20037;-72
2021/01/10 01:11:27;;;;;;;14.57;6.75;;;3.10;68.10;;;;;;4897875;29;20426;-72
2021/01/10 01:13:53;;;;;;;12.77;6.72;;;3.00;68.10;;;;;;4899488;29;20064;-72
2021/01/10 01:16:18;;;;;;;14.45;7.15;;;3.40;68.30;;;;;;4898757;29;20071;-72
2021/01/10 01:18:44;;;;;;;13.25;6.90;;;3.10;68.10;;;;;;4898842;29;20032;-72
2021/01/10 01:21:17;;;;;;;13.20;7.43;;;3.10;68.20;;;;;;4899082;29;20157;-72
2021/01/10 01:23:43;;;;;;;13.38;6.75;;;3.30;68.20;;;;;;4902648;29;20036;-72
2021/01/10 01:26:20;;;;;;;14.23;6.85;;;3.00;68.10;;;;;;4902680;29;20157;-71
2021/01/10 01:28:46;;;;;;;12.93;6.47;;;3.00;68.10;;;;;;4903064;29;20040;-72
2021/01/10 01:31:22;;;;;;;15.73;7.18;;;3.00;68.20;;;;;;4902551;29;20401;-72
2021/01/10 01:33:50;;;;;;;15.60;7.55;;;3.00;68.20;;;;;;4902749;29;20036;-72
2021/01/10 01:36:18;;;;;;;15.80;6.80;;;2.90;68.10;;;;;;4902254;29;20401;-72
2021/01/10 01:38:45;;;;;;;13.25;6.75;;;3.10;68.30;;;;;;4902659;29;20091;-72
2021/01/10 01:41:12;;;;;;;14.52;7.22;;;2.90;68.30;;;;;;4902374;29;20048;-72
2021/01/10 01:43:39;;;;;;;14.70;6.82;;;3.10;68.50;;;;;;4902445;29;20071;-72
2021/01/10 01:46:08;;;;;;;14.00;6.97;;;2.90;68.50;;;;;;4902231;29;20044;-72
2021/01/10 01:48:36;;;;;;;13.35;6.97;;;2.90;68.40;;;;;;4902429;29;20052;-72
2021/01/10 01:51:03;;;;;;;14.70;7.25;;;3.00;68.50;;;;;;4902106;29;20481;-72
2021/01/10 01:53:29;;;;;;;12.80;6.47;;;3.30;68.80;;;;;;4902418;29;20096;-72
2021/01/10 01:55:57;;;;;;;13.02;6.78;;;2.90;68.60;;;;;;4902291;29;20045;-72
2021/01/10 01:58:24;;;;;;;14.35;6.80;;;2.80;68.60;;;;;;4901945;29;20048;-72
2021/01/10 02:00:50;;;;;;;13.57;6.85;;;2.70;68.50;;;;;;4901950;29;20040;-72
2021/01/10 02:03:38;;;;;;;14.68;7.13;;;2.70;68.50;;;;;;4902056;29;20033;-72
2021/01/10 02:06:18;;;;;;;15.02;7.40;;;2.90;68.60;;;;;;4901870;29;20053;-72
2021/01/10 02:08:45;;;;;;;13.43;6.43;;;2.80;68.60;;;;;;4901806;29;20092;-72
2021/01/10 02:11:12;;;;;;;13.88;6.50;;;3.00;68.70;;;;;;4901602;29;20044;-72
2021/01/10 02:13:39;;;;;;;14.52;7.20;;;3.00;68.80;;;;;;4901701;29;20045;-72
2021/01/10 02:16:06;;;;;;;12.50;6.90;;;2.90;68.80;;;;;;4901535;29;20079;-72
2021/01/10 02:18:36;;;;;;;14.70;6.80;;;3.10;68.90;;;;;;4901403;29;20065;-72
2021/01/10 02:21:08;;;;;;;13.00;6.53;;;2.90;68.90;;;;;;4900691;29;20500;-72
2021/01/10 02:23:36;;;;;;;12.98;6.80;;;3.00;69.00;;;;;;4901052;29;20112;-72
2021/01/10 02:26:03;;;;;;;13.40;6.38;;;2.70;68.80;;;;;;4901407;29;20516;-72
2021/01/10 02:28:31;;;;;;;14.63;6.85;;;3.10;69.00;;;;;;4901377;29;20044;-72
2021/01/10 02:31:00;;;;;;;16.83;7.18;;;3.00;69.00;;;;;;4901158;29;20040;-72
2021/01/10 02:33:39;;;;;;;11.93;5.80;;;2.90;68.90;;;;;;4899945;29;20396;-72
2021/01/10 02:36:27;;;;;;;12.90;6.22;;;3.10;68.90;;;;;;4901090;29;20040;-72
2021/01/10 02:39:21;;;;;;;12.32;6.10;;;3.30;69.10;;;;;;4900629;29;20044;-72
2021/01/10 02:41:54;;;;;;;13.20;6.75;;;2.80;68.90;;;;;;4900851;29;20045;-71
2021/01/10 02:44:42;;;;;;;12.38;6.13;;;3.10;69.20;;;;;;4900986;29;20040;-72
2021/01/10 02:47:10;;;;;;;12.93;5.38;;;2.90;68.90;;;;;;4900620;29;20040;-72
2021/01/10 02:49:35;;;;;;;12.07;5.95;;;3.00;69.10;;;;;;4900982;29;20036;-72
2021/01/10 02:52:02;;;;;;;10.90;5.60;;;2.50;68.90;;;;;;4900920;29;20137;-72
2021/01/10 02:54:28;;;;;;;11.00;5.53;;;2.90;69.10;;;;;;4900995;29;20041;-72
2021/01/10 02:57:09;;;;;;;8.55;4.63;;;3.30;69.40;;;;;;4900796;29;20107;-72
2021/01/10 02:59:39;;;;;;;12.15;5.70;;;3.10;69.30;;;;;;4900744;29;20051;-72
2021/01/10 03:02:06;;;;;;;11.25;5.75;;;2.80;69.40;;;;;;4900865;29;20049;-72
2021/01/10 03:04:33;;;;;;;11.45;5.68;;;3.00;69.60;;;;;;4900747;29;20037;-72
2021/01/10 03:07:00;;;;;;;11.10;5.78;;;2.90;69.60;;;;;;4900690;29;20064;-72
2021/01/10 03:09:27;;;;;;;10.20;5.32;;;3.00;69.60;;;;;;4900910;29;20040;-72
2021/01/10 03:11:56;;;;;;;12.43;5.97;;;2.60;69.30;;;;;;4900982;29;20075;-72
2021/01/10 03:14:22;;;;;;;12.00;4.93;;;2.80;69.70;;;;;;4900939;29;20072;-72
2021/01/10 03:16:52;;;;;;;12.93;5.75;;;3.00;69.70;;;;;;4900577;29;20056;-72
2021/01/10 03:19:17;;;;;;;12.32;5.28;;;2.90;69.70;;;;;;4900630;29;20119;-72
2021/01/10 03:21:43;;;;;;;10.68;5.43;;;2.90;69.70;;;;;;4900240;29;20075;-72
2021/01/10 03:24:10;;;;;;;13.27;5.70;;;3.00;69.80;;;;;;4900788;29;20571;-72
2021/01/10 03:26:35;;;;;;;13.20;5.47;;;3.30;70.00;;;;;;4900425;29;20100;-72
2021/01/10 03:29:01;;;;;;;10.98;5.30;;;3.00;70.00;;;;;;4900704;29;20040;-72
2021/01/10 03:31:27;;;;;;;9.77;5.13;;;2.90;69.90;;;;;;4899925;29;20513;-72
2021/01/10 03:33:53;;;;;;;14.23;5.90;;;3.30;70.00;;;;;;4900340;29;20037;-72
2021/01/10 03:36:18;;;;;;;12.02;5.43;;;2.90;69.80;;;;;;4899842;29;20492;-72
2021/01/10 03:38:44;;;;;;;11.13;5.28;;;3.00;69.90;;;;;;4900568;29;20048;-72
2021/01/10 03:41:10;;;;;;;9.95;5.38;;;2.80;69.80;;;;;;4900461;29;20071;-72
2021/01/10 03:43:37;;;;;;;11.77;6.47;;;2.80;69.90;;;;;;4900107;29;20037;-72
2021/01/10 03:46:04;;;;;;;10.73;5.20;;;2.80;69.90;;;;;;4899908;29;20124;-72
2021/01/10 03:48:35;;;;;;;12.20;5.18;;;2.70;70.00;;;;;;4899774;29;20036;-72
2021/01/10 03:51:01;;;;;;;12.02;5.47;;;2.50;69.90;;;;;;4900348;29;20091;-72
2021/01/10 03:53:27;;;;;;;14.05;5.93;;;2.70;70.00;;;;;;4899828;29;20047;-72
2021/01/10 03:55:52;;;;;;;12.55;5.43;;;2.60;69.90;;;;;;4899894;29;20048;-72
2021/01/10 03:58:18;;;;;;;10.75;5.35;;;2.30;69.90;;;;;;4900134;29;20052;-71
2021/01/10 04:00:44;;;;;;;9.77;4.88;;;2.90;70.30;;;;;;4900036;29;20044;-72
2021/01/10 04:03:10;;;;;;;14.10;5.93;;;2.60;70.30;;;;;;4900001;29;20036;-72
2021/01/10 04:05:35;;;;;;;14.05;5.93;;;2.60;70.40;;;;;;4899057;29;20056;-72
2021/01/10 04:08:01;;;;;;;11.40;5.07;;;2.70;70.50;;;;;;4899655;29;20392;-72
2021/01/10 04:10:27;;;;;;;16.60;5.68;;;2.70;70.60;;;;;;4899702;29;20048;-72
2021/01/10 04:12:53;;;;;;;13.05;5.68;;;2.70;70.80;;;;;;4899523;29;20076;-72
2021/01/10 04:15:19;;;;;;;10.52;4.95;;;2.60;70.70;;;;;;4899322;29;20131;-72
2021/01/10 04:17:44;;;;;;;11.70;5.38;;;2.80;70.70;;;;;;4899506;29;20407;-72
2021/01/10 04:20:11;;;;;;;11.70;4.93;;;3.00;70.80;;;;;;4899219;29;20056;-72
2021/01/10 04:22:36;;;;;;;13.80;5.20;;;2.70;70.60;;;;;;4899527;29;20040;-72
2021/01/10 04:25:03;;;;;;;11.23;5.07;;;2.80;70.60;;;;;;4899564;29;20051;-72
2021/01/10 04:27:29;;;;;;;11.15;4.72;;;2.70;70.60;;;;;;4899028;29;20079;-72
2021/01/10 04:29:54;;;;;;;12.57;4.97;;;2.80;70.80;;;;;;4899377;29;20370;-72
2021/01/10 04:32:21;;;;;;;10.88;4.88;;;2.70;70.80;;;;;;4899139;29;20067;-72
2021/01/10 04:34:47;;;;;;;12.32;5.00;;;2.80;70.90;;;;;;4899217;29;20040;-72
2021/01/10 04:37:13;;;;;;;11.70;4.65;;;3.30;71.20;;;;;;4898633;29;20604;-72
2021/01/10 04:39:39;;;;;;;12.50;4.90;;;2.70;70.90;;;;;;4899115;29;20048;-71
2021/01/10 04:42:06;;;;;;;12.32;4.68;;;2.80;70.90;;;;;;4899159;29;20532;-72
2021/01/10 04:44:31;;;;;;;11.63;5.20;;;2.70;70.90;;;;;;4899393;29;20049;-73
2021/01/10 04:46:58;;;;;;;12.13;4.78;;;3.00;71.20;;;;;;4898995;29;20041;-72
2021/01/10 04:49:24;;;;;;;12.00;5.45;;;2.80;71.00;;;;;;4899033;29;20044;-72
2021/01/10 04:51:52;;;;;;;12.40;4.72;;;3.10;71.30;;;;;;4898712;29;20040;-72
2021/01/10 04:54:22;;;;;;;12.15;5.15;;;2.70;71.10;;;;;;4898653;29;20040;-72
2021/01/10 04:56:49;;;;;;;10.43;4.68;;;3.10;71.30;;;;;;4897868;29;20045;-71
2021/01/10 04:59:17;;;;;;;12.15;4.82;;;2.60;71.00;;;;;;4898612;29;20103;-72
2021/01/10 05:01:52;;;;;;;7.65;4.45;;;2.80;71.30;;;;;;4898702;29;20100;-72
2021/01/10 05:04:18;;;;;;;;;;;2.50;71.10;;;;;;4898752;29;20036;-72
2021/01/10 05:06:45;;;;;;;11.13;5.10;;;2.70;71.30;;;;;;4898735;29;19919;-72
2021/01/10 05:09:11;;;;;;;10.02;4.50;;;3.00;71.50;;;;;;4898838;29;20091;-72
2021/01/10 05:11:38;;;;;;;10.55;5.07;;;2.60;71.10;;;;;;4899157;29;20607;-72
2021/01/10 05:14:04;;;;;;;12.27;5.05;;;2.70;71.20;;;;;;4899104;29;20132;-72
2021/01/10 05:16:34;;;;;;;12.80;4.50;;;2.90;71.30;;;;;;4898859;29;20092;-72
2021/01/10 05:19:01;;;;;;;13.10;4.95;;;2.70;71.20;;;;;;4898664;29;20068;-72
2021/01/10 05:21:27;;;;;;;11.85;4.85;;;3.00;71.40;;;;;;4899047;29;20079;-72
2021/01/10 05:23:57;;;;;;;11.85;4.90;;;2.90;72.00;;;;;;4899125;29;20048;-72
2021/01/10 05:26:30;;;;;;;12.60;5.35;;;2.80;71.50;;;;;;4898794;29;20055;-72
2021/01/10 05:29:03;;;;;;;11.77;4.35;;;2.70;71.50;;;;;;4898780;29;20517;-71
2021/01/10 05:31:41;;;;;;;10.05;5.18;;;2.60;71.30;;;;;;4899052;29;20049;-72
2021/01/10 05:34:14;;;;;;;12.23;5.25;;;2.60;71.80;;;;;;4898982;29;20033;-72
2021/01/10 05:36:40;;;;;;;12.10;4.72;;;2.60;71.30;;;;;;4898509;29;20049;-72
2021/01/10 05:39:28;;;;;;;14.02;5.20;;;2.80;71.60;;;;;;4898496;29;20064;-72
2021/01/10 05:41:56;;;;;;;9.25;4.35;;;3.00;71.70;;;;;;4898650;29;20120;-72
2021/01/10 05:44:26;;;;;;;11.25;5.00;;;2.90;71.70;;;;;;4898696;29;20047;-72
2021/01/10 05:47:03;;;;;;;13.93;5.18;;;2.80;71.70;;;;;;4899066;29;20048;-71
2021/01/10 05:49:29;;;;;;;13.32;5.55;;;2.80;71.70;;;;;;4898472;29;20045;-71
2021/01/10 05:51:56;;;;;;;12.55;5.25;;;3.20;71.90;;;;;;4898514;29;20100;-71
2021/01/10 05:54:37;;;;;;;11.93;5.18;;;2.80;72.20;;;;;;4898850;29;20056;-71
2021/01/10 05:57:05;;;;;;;13.27;4.88;;;2.70;71.60;;;;;;4898264;29;20049;-71
2021/01/10 05:59:34;;;;;;;13.10;5.20;;;2.70;71.70;;;;;;4898875;29;20043;-72
2021/01/10 06:02:05;;;;;;;12.50;5.15;;;2.90;71.80;;;;;;4898680;29;20089;-72
2021/01/10 06:04:32;;;;;;;13.65;5.15;;;2.90;71.80;;;;;;4898607;29;20032;-72
2021/01/10 06:06:59;;;;;;;11.25;5.18;;;2.40;71.60;;;;;;4898428;29;20568;-72
2021/01/10 06:09:26;;;;;;;11.90;5.20;;;2.70;72.00;;;;;;4901419;29;20520;-72
2021/01/10 06:11:52;;;;;;;11.38;5.47;;;2.50;71.90;;;;;;4901725;29;20081;-71
2021/01/10 06:14:23;;;;;;;10.77;5.10;;;2.70;72.00;;;;;;4901629;29;20446;-72
2021/01/10 06:16:58;;;;;;;11.50;5.50;;;2.70;72.00;;;;;;4901745;29;20052;-72
2021/01/10 06:19:28;;;;;;;13.20;5.25;;;2.70;72.10;;;;;;4902120;29;20123;-72
2021/01/10 06:22:02;;;;;;;12.73;5.38;;;2.80;72.10;;;;;;4901537;29;20048;-72
2021/01/10 06:24:44;;;;;;;12.80;5.40;;;3.00;72.10;;;;;;4901837;29;20040;-72
2021/01/10 06:27:18;;;;;;;13.73;5.78;;;2.90;72.20;;;;;;4901716;29;20048;-72
2021/01/10 06:29:44;;;;;;;12.68;5.03;;;2.60;72.00;;;;;;4901436;29;20048;-72
2021/01/10 06:32:11;;;;;;;14.45;5.85;;;2.90;72.20;;;;;;4901799;29;20040;-72
2021/01/10 06:34:42;;;;;;;13.73;5.25;;;2.60;72.10;;;;;;4901722;29;20048;-72
2021/01/10 06:37:10;;;;;;;12.57;5.53;;;2.50;72.00;;;;;;4901458;29;20052;-71
2021/01/10 06:39:40;;;;;;;12.80;5.45;;;2.50;72.00;;;;;;4901379;29;20048;-72
2021/01/10 06:42:11;;;;;;;12.45;5.45;;;2.60;72.00;;;;;;4901508;29;20140;-72
2021/01/10 06:44:40;;;;;;;13.05;5.57;;;3.20;72.40;;;;;;4900801;29;20040;-71
2021/01/10 06:47:14;;;;;;;10.77;5.43;;;2.60;72.10;;;;;;4901041;29;20067;-71
2021/01/10 06:49:39;;;;;;;11.20;5.75;;;2.80;72.30;;;;;;4901076;29;20041;-72
2021/01/10 06:52:08;;;;;;;11.57;6.10;;;2.60;72.20;;;;;;4901207;29;20044;-72
2021/01/10 06:55:03;;;;;;;12.05;5.70;;;2.70;72.30;;;;;;4901356;29;20481;-72
2021/01/10 06:57:33;;;;;;;11.25;5.43;;;2.60;72.30;;;;;;4900171;29;20135;-72
2021/01/10 07:00:02;;;;;;;14.93;5.75;;;2.80;72.40;;;;;;4901903;29;20504;-73
2021/01/10 07:02:28;;;;;;;12.00;5.65;;;2.50;72.30;;;;;;4909178;29;20593;-72
2021/01/10 07:04:56;;;;;;;15.80;5.90;;;2.60;72.30;;;;;;4899797;29;20040;-72
2021/01/10 07:07:32;;;;;;;13.82;5.82;;;2.70;72.40;;;;;;4926865;29;20055;-72
2021/01/10 07:09:58;;;;;;;13.52;6.40;;;2.60;72.40;;;;;;4938011;29;20043;-72
2021/01/10 07:12:24;;;;;;;15.65;5.90;;;2.70;72.40;;;;;;4937945;29;20047;-72
2021/01/10 07:14:50;;;;;;;13.98;6.25;;;2.70;72.30;;;;;;4934530;29;20095;-72
2021/01/10 07:17:18;;;;;;;11.38;5.53;;;2.70;72.30;;;;;;4919139;29;20555;-72
2021/01/10 07:19:46;;;;;;;11.00;5.38;;;2.50;72.20;;;;;;4902556;29;20040;-72
2021/01/10 07:22:30;;;;;;;11.73;5.25;;;2.60;72.30;;;;;;4900472;29;20048;-72
2021/01/10 07:24:57;;;;;;;14.75;6.75;;;2.40;72.20;;;;;;4900153;29;20088;-72
2021/01/10 07:27:33;;;;;;;13.40;6.00;;;2.60;72.30;;;;;;4900338;29;20434;-72
2021/01/10 07:30:22;;;;;;;14.02;6.10;;;2.60;72.30;;;;;;4900417;29;20037;-72
2021/01/10 07:32:48;;;;;;;13.20;5.38;;;2.60;72.20;;;;;;4900137;29;20041;-72
2021/01/10 07:35:14;;;;;;;12.35;5.57;;;2.60;72.40;;;;;;4900056;29;20050;-72
2021/01/10 07:37:40;;;;;;;12.93;6.00;;;2.60;72.40;;;;;;4898796;29;20052;-71
2021/01/10 07:40:10;;;;;;;17.42;5.97;;;2.90;72.60;;;;;;4899280;29;20036;-72
2021/01/10 07:42:37;;;;;;;13.30;6.22;;;2.70;72.50;;;;;;4898863;29;20575;-71
2021/01/10 07:45:20;;;;;;;13.10;6.50;;;2.70;72.40;;;;;;4899050;29;20041;-72
2021/01/10 07:47:51;;;;;;;10.85;5.50;;;2.70;72.30;;;;;;4898700;29;20052;-72
2021/01/10 07:50:16;;;;;;;10.88;5.93;;;2.90;72.50;;;;;;4898983;29;20044;-72
2021/01/10 07:52:42;;;;;;;12.32;6.15;;;2.60;72.30;;;;;;4898479;29;20044;-72
2021/01/10 07:55:20;;;;;;;13.07;5.82;;;3.00;72.50;;;;;;4911454;29;20503;-72
2021/01/10 07:58:01;;;;;;;13.15;6.28;;;2.70;72.30;;;;;;4936619;29;20055;-72
2021/01/10 08:00:29;;;;;;;12.35;5.95;;;2.90;72.30;;;;;;4937272;29;20135;-72
2021/01/10 08:03:03;;;;;;;11.05;5.60;;;2.80;72.30;;;;;;4937370;29;20047;-72
2021/01/10 08:05:33;;;;;;;10.73;5.68;;;3.10;72.40;;;;;;4936702;29;20178;-72
2021/01/10 08:08:03;;;;;;;14.50;5.85;;;3.00;72.20;;;;;;4936726;29;20047;-73
2021/01/10 08:10:51;;;;;;;12.10;5.72;;;3.00;72.10;;;;;;4936569;29;20036;-73
2021/01/10 08:13:29;;;;;;;11.95;5.53;;;3.30;72.10;;;;;;4936680;29;20122;-73
2021/01/10 08:16:02;;;;;;;13.25;6.10;;;3.20;72.00;;;;;;4936929;29;20043;-72
2021/01/10 08:18:48;;;;;;;15.75;6.10;;;3.30;71.90;;;;;;4937037;29;20047;-72
2021/01/10 08:21:15;;;;;;;12.23;6.43;;;3.50;71.90;;;;;;4936199;29;20118;-73
2021/01/10 08:23:44;;;;;;;11.88;5.70;;;3.40;71.70;;;;;;4936790;29;20035;-72
2021/01/10 08:26:15;;;;;;;13.43;5.85;;;3.40;71.40;;;;;;4936389;29;20419;-71
2021/01/10 08:28:46;;;;;;;11.00;5.63;;;3.70;71.40;;;;;;4936928;29;20051;-71
2021/01/10 08:31:23;;;;;;;11.18;5.75;;;3.60;71.10;;;;;;4936435;29;20047;-72
2021/01/10 08:34:16;;;;;;;12.48;6.20;;;4.40;71.40;;;;;;4936479;29;20035;-73
2021/01/10 08:36:46;;;;;;;12.52;5.70;;;5.10;69.30;;;;;;4936513;29;20058;-74
2021/01/10 08:39:15;;;;;;;9.80;5.28;;;6.50;68.30;;;;;;4936646;29;20036;-72
2021/01/10 08:41:43;;;;;;;11.60;5.18;;;7.80;67.70;;;;;;4936491;29;20048;-73
2021/01/10 08:44:20;;;;;;;7.32;5.00;;;8.90;66.50;;;;;;4936316;29;20042;-73
2021/01/10 08:46:48;;;;;;;8.10;5.07;;;9.90;64.20;;;;;;4936534;29;20055;-72
2021/01/10 08:49:25;;;;;;;9.23;5.53;;;10.80;63.60;;;;;;4923719;29;20075;-74
2021/01/10 08:51:51;;;;;;;8.57;5.07;;;11.60;61.60;;;;;;4911845;29;20040;-73
2021/01/10 08:54:19;;;;;;;10.15;5.90;;;12.30;60.50;;;;;;4898001;29;20053;-73
2021/01/10 08:56:55;;;;;;;14.93;8.25;;;12.90;59.30;;;;;;4934489;29;20063;-74
2021/01/10 08:59:22;;;;;;;7.53;5.28;;;13.20;57.80;;;;;;4929257;29;20036;-75
2021/01/10 09:01:48;;;;;;;9.20;6.05;;;14.00;57.40;;;;;;4916293;29;20044;-75
2021/01/10 09:04:16;;;;;;;10.68;6.88;;;14.40;56.30;;;;;;4916834;29;20040;-74
2021/01/10 09:07:09;;;;;;;10.98;5.85;;;14.40;55.60;;;;;;4914749;29;20064;-74
2021/01/10 09:10:09;;;;;;;8.38;5.18;;;14.10;55.40;;;;;;4897789;29;20071;-76
2021/01/10 09:12:42;;;;;;;7.35;4.55;;;14.10;55.50;;;;;;4866562;29;20044;-74
2021/01/10 09:15:32;;;;;;;7.82;4.97;;;14.40;54.80;;;;;;4897405;29;20060;-73
2021/01/10 09:18:03;;;;;;;8.90;5.10;;;14.50;54.50;;;;;;4897266;29;20056;-74
2021/01/10 09:20:45;;;;;;;7.45;5.10;;;14.50;53.40;;;;;;4897249;29;20071;-74
2021/01/10 09:23:11;;;;;;;7.97;5.05;;;14.20;53.60;;;;;;4896350;29;20052;-74
2021/01/10 09:25:37;;;;;;;11.05;5.10;;;13.70;53.30;;;;;;4897872;29;20093;-74
2021/01/10 09:28:33;;;;;;;10.75;5.57;;;13.10;53.40;;;;;;4880918;29;20517;-74
2021/01/10 09:31:00;;;;;;;9.23;5.40;;;12.80;53.20;;;;;;4894235;29;20051;-74
2021/01/10 09:33:28;;;;;;;8.98;4.43;;;13.00;53.90;;;;;;4897593;29;20048;-74
2021/01/10 09:35:56;;;;;;;8.27;4.72;;;13.00;53.70;;;;;;4897491;29;20076;-73
2021/01/10 09:38:24;;;;;;;8.23;4.68;;;12.70;54.00;;;;;;4911852;29;20639;-74
2021/01/10 09:41:10;;;;;;;8.55;4.60;;;12.20;53.90;;;;;;4911673;29;20128;-75
2021/01/10 09:43:49;;;;;;;7.65;4.45;;;12.00;54.20;;;;;;4897550;29;20032;-74
2021/01/10 09:46:28;;;;;;;6.40;4.40;;;12.00;54.50;;;;;;4939305;29;20032;-74
2021/01/10 09:49:03;;;;;;;7.13;4.38;;;11.80;54.30;;;;;;4925114;29;20104;-74
2021/01/10 09:51:39;;;;;;;8.25;4.63;;;11.60;54.90;;;;;;4919969;29;20099;-73
2021/01/10 09:54:18;;;;;;;8.98;4.70;;;11.20;55.70;;;;;;4916985;29;20123;-73
2021/01/10 09:56:49;;;;;;;8.90;4.60;;;10.60;55.90;;;;;;4913410;29;20064;-76
2021/01/10 09:59:41;;;;;;;7.95;4.25;;;10.30;57.00;;;;;;4913466;29;20048;-76
2021/01/10 10:02:16;;;;;;;9.13;5.03;;;9.70;57.60;;;;;;4915669;29;20036;-74
2021/01/10 10:04:46;;;;;;;10.85;4.90;;;9.50;56.90;;;;;;4915199;29;20060;-74
2021/01/10 10:07:13;;;;;;;10.55;5.00;;;9.20;57.10;;;;;;4918603;29;20060;-75
2021/01/10 10:09:53;;;;;;;8.68;4.78;;;8.70;57.60;;;;;;4905466;29;20168;-73
2021/01/10 10:12:24;;;;;;;9.02;4.72;;;8.50;58.40;;;;;;4916950;29;20039;-75
2021/01/10 10:15:00;;;;;;;9.60;4.85;;;8.20;58.60;;;;;;4898373;29;20048;-73
2021/01/10 10:17:31;;;;;;;9.45;4.93;;;8.00;58.60;;;;;;4912098;29;20055;-74
2021/01/10 10:19:58;;;;;;;8.93;4.82;;;7.90;58.60;;;;;;4903970;29;20041;-73
2021/01/10 10:22:32;;;;;;;8.52;4.90;;;7.70;58.60;;;;;;4914966;29;20071;-74
2021/01/10 10:25:01;;;;;;;10.73;4.80;;;7.80;58.60;;;;;;4932474;29;20051;-74
2021/01/10 10:27:29;;;;;;;9.10;4.38;;;7.60;58.60;;;;;;4938079;29;20082;-73
2021/01/10 10:29:56;;;;;;;7.18;4.32;;;7.50;58.70;;;;;;4937862;29;20049;-74
2021/01/10 10:32:22;;;;;;;9.15;4.40;;;7.50;58.90;;;;;;4926312;29;20071;-74
2021/01/10 10:34:49;;;;;;;8.65;4.88;;;7.60;58.90;;;;;;4919300;29;20044;-73
2021/01/10 10:37:16;;;;;;;9.30;4.88;;;7.50;58.90;;;;;;4917968;29;20055;-74
2021/01/10 10:39:43;;;;;;;7.50;4.55;;;7.50;59.00;;;;;;4919062;29;20071;-75
2021/01/10 10:42:14;;;;;;;7.47;4.00;;;7.40;59.10;;;;;;4919561;29;20044;-74
2021/01/10 10:44:40;;;;;;;7.43;3.88;;;7.50;59.10;;;;;;4919408;29;20066;-74
2021/01/10 10:47:09;;;;;;;8.13;4.43;;;7.60;59.10;;;;;;4919421;29;20488;-72
2021/01/10 10:49:35;;;;;;;5.93;4.00;;;7.80;59.30;;;;;;4906969;29;20110;-73
2021/01/10 10:52:01;;;;;;;7.07;4.00;;;7.60;59.30;;;;;;4911502;29;20044;-72
2021/01/10 10:54:27;;;;;;;8.07;3.88;;;7.60;59.40;;;;;;4904268;29;20068;-73
2021/01/10 10:56:52;;;;;;;9.18;4.10;;;7.60;59.40;;;;;;4899916;29;20059;-78
2021/01/10 10:59:19;;;;;;;8.32;4.18;;;7.60;59.50;;;;;;4898703;29;20033;-75
2021/01/10 11:01:48;;;;;;;7.55;3.83;;;7.60;59.50;;;;;;4899965;29;20064;-75
2021/01/10 11:04:14;;;;;;;7.78;3.70;;;7.70;59.60;;;;;;4899413;29;20083;-74
2021/01/10 11:06:40;;;;;;;6.20;3.25;;;7.90;59.70;;;;;;4909432;29;20492;-74
2021/01/10 11:09:08;;;;;;;7.55;3.67;;;7.80;59.60;;;;;;4908964;29;20044;-74
2021/01/10 11:11:45;;;;;;;7.70;2.95;;;7.70;59.50;;;;;;4914539;29;20485;-72
2021/01/10 11:14:16;;;;;;;6.38;3.00;;;8.10;59.70;;;;;;4899424;29;20044;-74
2021/01/10 11:16:43;;;;;;;7.22;3.17;;;8.00;59.60;;;;;;4910264;29;20194;-75
2021/01/10 11:19:10;;;;;;;8.73;2.95;;;8.00;59.70;;;;;;4917781;29;20040;-71
2021/01/10 11:21:41;;;;;;;6.85;2.80;;;8.00;59.70;;;;;;4917857;29;20071;-74
2021/01/10 11:24:08;;;;;;;6.18;2.75;;;7.90;59.60;;;;;;4916233;29;20051;-73
2021/01/10 11:26:35;;;;;;;6.63;2.55;;;7.80;59.60;;;;;;4899856;29;20123;-74
2021/01/10 11:29:04;;;;;;;7.00;2.90;;;8.00;59.80;;;;;;4899519;29;20052;-72
2021/01/10 11:31:32;;;;;;;6.03;2.22;;;8.00;59.70;;;;;;4898902;29;20044;-73
2021/01/10 11:33:59;;;;;;;5.85;2.35;;;8.00;59.60;;;;;;4898820;29;20060;-74
2021/01/10 11:36:25;;;;;;;4.55;2.38;;;7.90;59.40;;;;;;4899563;29;20054;-73
2021/01/10 11:38:53;;;;;;;5.05;2.50;;;7.90;59.40;;;;;;4899491;29;20069;-71
2021/01/10 11:41:20;;;;;;;6.57;2.75;;;8.00;59.50;;;;;;4903000;29;20032;-72
2021/01/10 11:43:47;;;;;;;4.35;2.58;;;8.20;59.50;;;;;;4917635;29;20048;-71
2021/01/10 11:46:13;;;;;;;5.63;2.17;;;8.30;59.50;;;;;;4918320;29;20044;-73
2021/01/10 11:48:43;;;;;;;8.68;2.67;;;8.30;59.40;;;;;;4917932;29;20566;-71
2021/01/10 11:51:11;;;;;;;4.40;2.22;;;8.60;59.50;;;;;;4908785;29;20509;-72
2021/01/10 11:53:37;;;;;;;3.75;2.03;;;8.70;59.40;;;;;;4912967;29;20036;-72
2021/01/10 11:56:03;;;;;;;5.43;1.92;;;8.70;59.10;;;;;;4899537;29;20044;-73
2021/01/10 11:58:29;;;;;;;4.13;2.17;;;8.90;59.00;;;;;;4907157;29;20083;-73
2021/01/10 12:00:56;;;;;;;3.55;1.90;;;9.00;59.00;;;;;;4917984;29;20044;-72
2021/01/10 12:03:23;;;;;;;4.68;1.90;;;9.20;58.80;;;;;;4917811;29;20040;-72
2021/01/10 12:05:49;;;;;;;3.78;1.92;;;9.40;58.60;;;;;;4917450;29;20094;-72
2021/01/10 12:08:16;;;;;;;4.38;1.88;;;9.40;58.40;;;;;;4899685;29;20036;-73
2021/01/10 12:10:42;;;;;;;3.33;1.50;;;9.40;58.20;;;;;;4897799;29;20494;-73
2021/01/10 12:13:09;;;;;;;4.03;1.50;;;9.60;57.90;;;;;;4899437;29;20048;-73
2021/01/10 12:15:36;;;;;;;3.88;1.55;;;9.60;57.60;;;;;;4899125;29;20051;-71
2021/01/10 12:18:03;;;;;;;4.43;1.67;;;9.70;57.70;;;;;;4899337;29;20056;-71
2021/01/10 12:20:30;;;;;;;3.53;1.50;;;9.60;57.40;;;;;;4899002;29;20044;-71
2021/01/10 12:22:56;;;;;;;3.28;1.33;;;9.60;57.70;;;;;;4899224;29;20485;-73
2021/01/10 12:25:22;;;;;;;3.17;1.35;;;9.70;57.70;;;;;;4918004;29;20128;-71
2021/01/10 12:27:48;;;;;;;4.90;1.58;;;9.60;57.70;;;;;;4917805;29;20048;-72
2021/01/10 12:30:15;;;;;;;4.80;1.20;;;9.60;57.40;;;;;;4917125;29;20047;-73
2021/01/10 12:32:41;;;;;;;3.50;1.48;;;9.40;57.30;;;;;;4911906;29;20043;-72
2021/01/10 12:35:15;;;;;;;5.22;1.55;;;9.70;57.40;;;;;;4902453;29;20132;-73
2021/01/10 12:37:42;;;;;;;3.03;1.40;;;9.70;57.10;;;;;;4916972;29;20048;-73
2021/01/10 12:40:10;;;;;;;3.92;1.75;;;9.30;56.90;;;;;;4906867;29;20041;-74
2021/01/10 12:42:36;;;;;;;5.50;1.58;;;9.50;57.00;;;;;;4898687;29;20048;-74
2021/01/10 12:45:04;;;;;;;5.00;1.10;;;9.20;57.00;;;;;;4898591;29;20519;-75
2021/01/10 12:47:30;;;;;;;3.40;1.27;;;9.00;57.10;;;;;;4899469;29;20131;-76
2021/01/10 12:49:56;;;;;;;4.22;1.35;;;8.90;57.20;;;;;;4917003;29;20483;-75
2021/01/10 12:52:22;;;;;;;3.08;1.20;;;8.90;57.30;;;;;;4916761;29;20040;-74
2021/01/10 12:54:47;;;;;;;2.17;0.98;;;8.80;57.30;;;;;;4910733;29;20524;-74
2021/01/10 12:57:13;;;;;;;5.07;1.15;;;8.80;57.40;;;;;;4916917;29;20516;-73
2021/01/10 12:59:39;;;;;;;3.60;1.00;;;9.00;57.40;;;;;;4925011;29;20499;-73
2021/01/10 13:02:05;;;;;;;3.42;0.90;;;8.70;57.10;;;;;;4935178;29;20090;-76